Time;durP1;ratioP1;P1;durP2;ratioP2;P2;SDS_P1;SDS_P2;PMS_P1;PMS_P2;Temp;Humidity;BMP_temperature;BMP_pressure;BME280_temperature;BME280_humidity;BME280_pressure;Samples;Min_cycle;Max_cycle;Signal;HPM_P1;HPM_P2
2021/07/01 00:02:10;;;;;;;1.30;0.60;;;;;;;;;;4976217;28;20467;-86
2021/07/01 00:04:37;;;;;;;2.67;0.73;;;;;;;;;;4980974;28;20821;-85
2021/07/01 00:07:04;;;;;;;2.22;0.70;;;;;;;;;;4981544;28;20416;-85
2021/07/01 00:09:31;;;;;;;1.73;0.63;;;;;;;;;;4980506;28;21053;-84
2021/07/01 00:12:00;;;;;;;2.65;0.98;;;;;;;;;;4980965;28;20410;-86
2021/07/01 00:14:26;;;;;;;1.80;0.70;;;;;;;;;;4981498;28;20421;-86
2021/07/01 00:16:55;;;;;;;3.40;0.80;;;;;;;;;;4980897;28;20545;-84
2021/07/01 00:19:23;;;;;;;1.88;0.70;;;;;;;;;;4980702;28;20932;-85
2021/07/01 00:21:51;;;;;;;1.35;0.75;;;;;;;;;;4980960;28;20421;-86
2021/07/01 00:24:18;;;;;;;2.28;0.60;;;;;;;;;;4980620;28;20400;-85
2021/07/01 00:26:45;;;;;;;1.85;0.60;;;;;;;;;;4980418;28;20482;-85
2021/07/01 00:29:11;;;;;;;2.40;0.70;;;;;;;;;;4981102;28;20753;-86
2021/07/01 00:31:38;;;;;;;3.13;0.70;;;;;;;;;;4980722;28;20419;-83
2021/07/01 00:34:06;;;;;;;1.65;0.68;;;;;;;;;;4981030;28;20420;-85
2021/07/01 00:36:33;;;;;;;1.47;0.60;;;;;;;;;;4980187;28;20457;-85
2021/07/01 00:39:00;;;;;;;1.73;0.80;;;;;;;;;;4980376;28;20438;-85
2021/07/01 00:41:27;;;;;;;2.73;0.90;;;;;;;;;;4980679;28;20406;-86
2021/07/01 00:43:54;;;;;;;2.10;0.75;;;;;;;;;;4980105;28;21041;-85
2021/07/01 00:46:21;;;;;;;1.63;0.85;;;;;;;;;;4980648;28;20419;-86
2021/07/01 00:48:48;;;;;;;1.63;1.00;;;;;;;;;;4979936;28;20409;-84
2021/07/01 00:51:17;;;;;;;2.70;0.90;;;;;;;;;;4980380;28;21218;-85
2021/07/01 00:53:44;;;;;;;3.30;0.80;;;;;;;;;;4979043;28;20409;-85
2021/07/01 00:56:11;;;;;;;1.60;0.80;;;;;;;;;;4978914;28;20940;-86
2021/07/01 00:58:38;;;;;;;2.88;1.17;;;;;;;;;;4980587;28;20408;-85
2021/07/01 01:01:05;;;;;;;4.70;1.30;;;;;;;;;;4980162;28;20406;-85
2021/07/01 01:03:33;;;;;;;2.35;1.00;;;;;;;;;;4974483;28;20432;-85
2021/07/01 01:06:00;;;;;;;2.47;1.25;;;;;;;;;;4972355;28;20556;-86
2021/07/01 01:08:29;;;;;;;2.93;1.90;;;;;;;;;;4972684;28;20813;-84
2021/07/01 01:10:56;;;;;;;3.03;1.65;;;;;;;;;;4971826;28;20426;-84
2021/07/01 01:13:26;;;;;;;3.75;1.50;;;;;;;;;;4971054;28;20485;-85
2021/07/01 01:15:54;;;;;;;1.97;1.40;;;;;;;;;;4970676;28;20805;-85
2021/07/01 01:18:21;;;;;;;5.20;1.75;;;;;;;;;;4971854;28;20418;-85
2021/07/01 01:20:48;;;;;;;6.07;2.22;;;;;;;;;;4971550;28;20410;-85
2021/07/01 01:23:17;;;;;;;3.97;2.17;;;;;;;;;;4975390;28;21264;-85
2021/07/01 01:25:45;;;;;;;3.83;2.00;;;;;;;;;;4980082;28;20409;-84
2021/07/01 01:28:11;;;;;;;3.83;2.03;;;;;;;;;;4978081;28;20412;-86
2021/07/01 01:30:39;;;;;;;4.78;2.15;;;;;;;;;;4979892;28;20460;-84
2021/07/01 01:33:07;;;;;;;4.18;2.10;;;;;;;;;;4979815;28;20509;-84
2021/07/01 01:35:34;;;;;;;5.32;2.13;;;;;;;;;;4979083;28;20485;-86
2021/07/01 01:38:02;;;;;;;3.30;1.93;;;;;;;;;;4976175;28;20934;-85
2021/07/01 01:40:30;;;;;;;2.70;1.92;;;;;;;;;;4976597;28;20890;-85
2021/07/01 01:42:57;;;;;;;5.47;2.50;;;;;;;;;;4978609;28;21032;-86
2021/07/01 01:45:24;;;;;;;4.93;2.40;;;;;;;;;;4978750;28;20416;-85
2021/07/01 01:47:51;;;;;;;4.95;2.42;;;;;;;;;;4978810;28;21289;-85
2021/07/01 01:50:19;;;;;;;4.88;2.20;;;;;;;;;;4978765;28;20431;-85
2021/07/01 01:52:46;;;;;;;4.97;2.33;;;;;;;;;;4978863;28;20424;-85
2021/07/01 01:55:13;;;;;;;4.60;2.13;;;;;;;;;;4976563;28;20410;-85
2021/07/01 01:57:44;;;;;;;5.13;2.00;;;;;;;;;;4974516;28;20408;-86
2021/07/01 02:00:12;;;;;;;5.35;1.85;;;;;;;;;;4978119;28;20405;-85
2021/07/01 02:02:39;;;;;;;5.53;2.10;;;;;;;;;;4981998;28;20462;-85
2021/07/01 02:05:08;;;;;;;4.20;2.15;;;;;;;;;;4980937;28;20421;-85
2021/07/01 02:07:35;;;;;;;4.40;2.00;;;;;;;;;;4981743;28;20424;-85
2021/07/01 02:10:03;;;;;;;4.30;2.33;;;;;;;;;;4984619;28;20417;-86
2021/07/01 02:12:30;;;;;;;5.65;2.05;;;;;;;;;;4982693;28;20418;-84
2021/07/01 02:14:59;;;;;;;5.38;2.40;;;;;;;;;;4984737;28;20404;-86
2021/07/01 02:17:26;;;;;;;4.10;2.35;;;;;;;;;;4985648;28;20405;-85
2021/07/01 02:19:53;;;;;;;5.38;2.90;;;;;;;;;;4985235;28;20416;-86
2021/07/01 02:22:19;;;;;;;6.23;2.90;;;;;;;;;;4985239;28;20460;-86
2021/07/01 02:24:46;;;;;;;5.77;3.10;;;;;;;;;;4985187;28;20551;-85
2021/07/01 02:27:13;;;;;;;5.00;2.70;;;;;;;;;;4985188;28;20420;-86
2021/07/01 02:29:40;;;;;;;7.03;2.50;;;;;;;;;;4985279;28;20471;-86
2021/07/01 02:32:09;;;;;;;5.00;2.28;;;;;;;;;;4985430;28;20435;-85
2021/07/01 02:34:40;;;;;;;3.60;2.43;;;;;;;;;;4981573;28;20400;-84
2021/07/01 02:37:07;;;;;;;4.82;2.50;;;;;;;;;;4981541;28;20412;-86
2021/07/01 02:39:35;;;;;;;5.45;2.33;;;;;;;;;;4981288;28;20405;-85
2021/07/01 02:42:01;;;;;;;5.47;2.60;;;;;;;;;;4984780;28;20530;-85
2021/07/01 02:44:28;;;;;;;5.13;2.50;;;;;;;;;;4984526;28;20425;-85
2021/07/01 02:46:55;;;;;;;4.40;2.30;;;;;;;;;;4981629;28;20421;-85
2021/07/01 02:49:23;;;;;;;5.20;2.53;;;;;;;;;;4983405;28;20415;-85
2021/07/01 02:51:52;;;;;;;3.47;2.53;;;;;;;;;;4983507;28;20948;-86
2021/07/01 02:54:19;;;;;;;3.72;2.38;;;;;;;;;;4983807;28;20408;-84
2021/07/01 02:56:46;;;;;;;3.70;2.13;;;;;;;;;;4984375;28;20777;-85
2021/07/01 02:59:15;;;;;;;4.70;2.38;;;;;;;;;;4984754;28;20840;-85
2021/07/01 03:01:42;;;;;;;3.63;2.30;;;;;;;;;;4984586;28;20409;-85
2021/07/01 03:04:09;;;;;;;4.18;2.30;;;;;;;;;;4981409;28;20459;-85
2021/07/01 03:06:38;;;;;;;5.65;2.60;;;;;;;;;;4984115;28;20408;-85
2021/07/01 03:09:06;;;;;;;4.03;2.28;;;;;;;;;;4980485;28;20412;-84
2021/07/01 03:11:33;;;;;;;4.57;2.30;;;;;;;;;;4984036;28;20440;-86
2021/07/01 03:14:01;;;;;;;5.93;2.67;;;;;;;;;;4983976;28;20408;-85
2021/07/01 03:16:27;;;;;;;3.35;2.00;;;;;;;;;;4984290;28;20431;-85
2021/07/01 03:18:54;;;;;;;5.30;1.92;;;;;;;;;;4983992;28;20409;-85
2021/07/01 03:21:22;;;;;;;4.40;2.00;;;;;;;;;;4984742;28;20416;-85
2021/07/01 03:23:51;;;;;;;4.82;2.00;;;;;;;;;;4984277;28;20806;-85
2021/07/01 03:26:18;;;;;;;5.53;2.00;;;;;;;;;;4984132;28;20412;-84
2021/07/01 03:28:46;;;;;;;5.60;2.40;;;;;;;;;;4983918;28;20416;-84
2021/07/01 03:31:13;;;;;;;9.32;4.38;;;;;;;;;;4983890;28;20431;-85
2021/07/01 03:33:40;;;;;;;6.57;3.20;;;;;;;;;;4983678;28;20499;-85
2021/07/01 03:36:07;;;;;;;4.72;2.03;;;;;;;;;;4983986;28;20409;-85
2021/07/01 03:38:34;;;;;;;4.07;2.00;;;;;;;;;;4987676;28;20416;-86
2021/07/01 03:41:02;;;;;;;4.53;1.90;;;;;;;;;;4988178;28;20408;-85
2021/07/01 03:43:29;;;;;;;8.70;2.30;;;;;;;;;;4988063;28;20412;-85
2021/07/01 03:45:56;;;;;;;4.53;2.10;;;;;;;;;;4987839;28;20419;-85
2021/07/01 03:48:22;;;;;;;4.60;2.30;;;;;;;;;;4987901;28;20397;-85
2021/07/01 03:50:49;;;;;;;6.47;2.10;;;;;;;;;;4987718;28;20506;-85
2021/07/01 03:53:16;;;;;;;3.55;1.92;;;;;;;;;;4988509;28;20451;-85
2021/07/01 03:55:43;;;;;;;5.72;2.42;;;;;;;;;;4988222;28;20404;-85
2021/07/01 03:58:11;;;;;;;4.43;2.38;;;;;;;;;;4988437;28;20409;-85
2021/07/01 04:00:38;;;;;;;6.25;2.22;;;;;;;;;;4988105;28;20409;-85
2021/07/01 04:03:05;;;;;;;5.60;2.10;;;;;;;;;;4983332;28;20888;-84
2021/07/01 04:05:31;;;;;;;3.13;2.15;;;;;;;;;;4983588;28;20483;-85
2021/07/01 04:07:58;;;;;;;4.82;2.20;;;;;;;;;;4982051;28;20722;-86
2021/07/01 04:10:25;;;;;;;4.50;2.53;;;;;;;;;;4981336;28;20413;-84
2021/07/01 04:12:52;;;;;;;4.97;2.33;;;;;;;;;;4981814;28;20742;-85
2021/07/01 04:15:20;;;;;;;5.72;2.80;;;;;;;;;;4982630;28;20408;-86
2021/07/01 04:17:47;;;;;;;5.88;3.00;;;;;;;;;;4982362;28;20463;-84
2021/07/01 04:20:14;;;;;;;6.57;3.15;;;;;;;;;;4983443;28;20417;-85
2021/07/01 04:22:41;;;;;;;5.60;2.95;;;;;;;;;;4983344;28;20412;-84
2021/07/01 04:25:08;;;;;;;6.10;3.08;;;;;;;;;;4983153;28;20405;-84
2021/07/01 04:27:35;;;;;;;5.03;2.83;;;;;;;;;;4973819;28;20433;-85
2021/07/01 04:30:02;;;;;;;4.68;2.83;;;;;;;;;;4971417;28;20988;-85
2021/07/01 04:32:30;;;;;;;4.32;2.50;;;;;;;;;;4971174;28;20938;-84
2021/07/01 04:34:57;;;;;;;6.15;2.53;;;;;;;;;;4971103;28;20410;-86
2021/07/01 04:37:24;;;;;;;3.47;2.70;;;;;;;;;;4971197;28;20429;-85
2021/07/01 04:39:51;;;;;;;6.22;3.40;;;;;;;;;;4971191;28;20801;-85
2021/07/01 04:42:18;;;;;;;5.63;3.00;;;;;;;;;;4971223;28;20406;-85
2021/07/01 04:44:45;;;;;;;6.20;4.10;;;;;;;;;;4970743;28;20410;-85
2021/07/01 04:47:11;;;;;;;6.97;3.05;;;;;;;;;;4980766;28;20405;-85
2021/07/01 04:49:40;;;;;;;5.20;3.05;;;;;;;;;;4982215;28;20409;-85
2021/07/01 04:52:06;;;;;;;7.38;3.28;;;;;;;;;;4973702;28;20454;-85
2021/07/01 04:54:33;;;;;;;5.18;3.00;;;;;;;;;;4971260;28;20467;-85
2021/07/01 04:57:00;;;;;;;6.65;3.08;;;;;;;;;;4978948;28;21078;-85
2021/07/01 04:59:27;;;;;;;6.63;2.85;;;;;;;;;;4971987;28;20415;-84
2021/07/01 05:01:55;;;;;;;6.57;3.67;;;;;;;;;;4980461;28;21402;-85
2021/07/01 05:04:22;;;;;;;6.13;3.47;;;;;;;;;;4983305;28;20404;-84
2021/07/01 05:06:50;;;;;;;6.45;3.47;;;;;;;;;;4970992;28;20418;-85
2021/07/01 05:09:17;;;;;;;6.38;3.15;;;;;;;;;;4971281;28;20406;-85
2021/07/01 05:11:44;;;;;;;7.18;3.00;;;;;;;;;;4979621;28;20436;-84
2021/07/01 05:14:11;;;;;;;4.75;2.70;;;;;;;;;;4982735;28;20943;-84
2021/07/01 05:16:37;;;;;;;3.47;2.53;;;;;;;;;;4981928;28;20404;-85
2021/07/01 05:19:04;;;;;;;5.05;2.67;;;;;;;;;;4980935;28;20422;-86
2021/07/01 05:21:31;;;;;;;6.35;2.95;;;;;;;;;;4980929;28;20414;-85
2021/07/01 05:24:00;;;;;;;5.03;2.47;;;;;;;;;;4981869;28;20404;-85
2021/07/01 05:26:26;;;;;;;6.40;3.03;;;;;;;;;;4981772;28;20422;-85
2021/07/01 05:28:53;;;;;;;7.68;3.70;;;;;;;;;;4984115;28;20416;-85
2021/07/01 05:31:20;;;;;;;11.27;3.30;;;;;;;;;;4982238;28;20419;-85
2021/07/01 05:33:47;;;;;;;5.67;3.20;;;;;;;;;;4983985;28;20424;-85
2021/07/01 05:36:14;;;;;;;7.77;3.30;;;;;;;;;;4982602;28;20461;-85
2021/07/01 05:38:40;;;;;;;9.02;2.90;;;;;;;;;;4982953;28;20411;-86
2021/07/01 05:41:08;;;;;;;5.50;2.67;;;;;;;;;;4974482;28;20423;-85
2021/07/01 05:43:35;;;;;;;5.45;2.20;;;;;;;;;;4967580;28;20412;-85
2021/07/01 05:46:02;;;;;;;4.53;2.10;;;;;;;;;;4967410;28;20930;-84
2021/07/01 05:48:30;;;;;;;4.03;2.20;;;;;;;;;;4967597;28;20418;-84
2021/07/01 05:51:02;;;;;;;5.72;2.13;;;;;;;;;;4968255;28;20417;-85
2021/07/01 05:53:32;;;;;;;4.65;2.25;;;;;;;;;;4968458;28;20422;-84
2021/07/01 05:56:00;;;;;;;4.57;2.17;;;;;;;;;;4969211;28;20423;-84
2021/07/01 05:58:28;;;;;;;3.50;2.30;;;;;;;;;;4970733;28;20409;-82
2021/07/01 06:00:55;;;;;;;5.00;2.40;;;;;;;;;;4980874;28;20448;-83
2021/07/01 06:03:22;;;;;;;8.18;2.40;;;;;;;;;;4980984;28;20413;-87
2021/07/01 06:05:53;;;;;;;3.15;2.00;;;;;;;;;;4977125;28;20412;-84
2021/07/01 06:08:21;;;;;;;4.18;2.25;;;;;;;;;;4981419;28;20491;-85
2021/07/01 06:10:50;;;;;;;4.15;2.22;;;;;;;;;;4981141;28;20419;-83
2021/07/01 06:13:22;;;;;;;3.57;2.00;;;;;;;;;;4980959;28;20930;-84
2021/07/01 06:15:53;;;;;;;4.72;2.10;;;;;;;;;;4984248;28;20488;-84
2021/07/01 06:18:20;;;;;;;5.65;2.15;;;;;;;;;;4983875;28;20444;-79
2021/07/01 06:20:48;;;;;;;6.38;2.20;;;;;;;;;;4980839;28;20400;-78
2021/07/01 06:23:16;;;;;;;4.78;2.08;;;;;;;;;;4982006;28;20440;-78
2021/07/01 06:25:44;;;;;;;5.90;2.10;;;;;;;;;;4981779;28;20472;-79
2021/07/01 06:28:12;;;;;;;3.80;2.20;;;;;;;;;;4981639;28;20408;-77
2021/07/01 06:30:41;;;;;;;4.85;2.10;;;;;;;;;;4970576;28;20414;-78
2021/07/01 06:33:10;;;;;;;4.00;1.88;;;;;;;;;;4968025;28;20774;-78
2021/07/01 06:35:38;;;;;;;2.25;1.70;;;;;;;;;;4967958;28;20432;-78
2021/07/01 06:38:10;;;;;;;4.82;2.00;;;;;;;;;;4968650;28;20409;-77
2021/07/01 06:40:37;;;;;;;3.43;1.60;;;;;;;;;;4968898;28;20408;-77
2021/07/01 06:43:04;;;;;;;6.45;2.08;;;;;;;;;;4968331;28;20528;-77
2021/07/01 06:45:32;;;;;;;2.93;1.50;;;;;;;;;;4968654;28;20581;-79
2021/07/01 06:47:59;;;;;;;6.25;2.00;;;;;;;;;;4968518;28;20462;-78
2021/07/01 06:50:29;;;;;;;7.25;2.70;;;;;;;;;;4969139;28;20407;-79
2021/07/01 06:52:58;;;;;;;5.43;2.60;;;;;;;;;;4968451;28;20430;-79
2021/07/01 06:55:26;;;;;;;9.10;2.70;;;;;;;;;;4968903;28;20470;-80
2021/07/01 06:57:53;;;;;;;6.70;2.63;;;;;;;;;;4968518;28;20487;-80
2021/07/01 07:00:22;;;;;;;7.43;2.80;;;;;;;;;;4968399;28;20414;-80
2021/07/01 07:02:49;;;;;;;7.85;2.78;;;;;;;;;;4968619;28;20406;-80
2021/07/01 07:05:17;;;;;;;11.95;3.00;;;;;;;;;;4975655;28;20413;-79
2021/07/01 07:07:48;;;;;;;8.57;2.88;;;;;;;;;;4980048;28;20463;-82
2021/07/01 07:10:16;;;;;;;3.63;2.30;;;;;;;;;;4977482;28;20974;-79
2021/07/01 07:12:44;;;;;;;5.27;2.00;;;;;;;;;;4979604;28;20601;-80
2021/07/01 07:15:14;;;;;;;8.57;2.20;;;;;;;;;;4970768;28;20468;-80
2021/07/01 07:17:41;;;;;;;5.85;1.85;;;;;;;;;;4970569;28;20846;-81
2021/07/01 07:20:10;;;;;;;3.47;1.60;;;;;;;;;;4967953;28;20409;-81
2021/07/01 07:22:40;;;;;;;5.15;1.80;;;;;;;;;;4968128;28;20404;-81
2021/07/01 07:25:11;;;;;;;4.82;1.85;;;;;;;;;;4967917;28;20558;-80
2021/07/01 07:27:40;;;;;;;7.57;1.90;;;;;;;;;;4968184;28;20404;-77
2021/07/01 07:30:08;;;;;;;5.25;1.90;;;;;;;;;;4968068;28;20463;-81
2021/07/01 07:32:39;;;;;;;4.90;1.90;;;;;;;;;;4967816;28;20428;-81
2021/07/01 07:35:07;;;;;;;5.70;1.83;;;;;;;;;;4968236;28;20408;-79
2021/07/01 07:37:33;;;;;;;4.82;2.00;;;;;;;;;;4968201;28;20840;-79
2021/07/01 07:40:04;;;;;;;5.90;1.60;;;;;;;;;;4968232;28;20403;-81
2021/07/01 07:42:33;;;;;;;3.23;1.63;;;;;;;;;;4968316;28;20410;-84
2021/07/01 07:45:00;;;;;;;3.33;1.67;;;;;;;;;;4967999;28;20407;-84
2021/07/01 07:47:30;;;;;;;4.78;1.50;;;;;;;;;;4967962;28;20417;-84
2021/07/01 07:49:57;;;;;;;3.63;0.95;;;;;;;;;;4968025;28;20421;-83
2021/07/01 07:52:25;;;;;;;2.38;1.08;;;;;;;;;;4967840;28;20466;-83
2021/07/01 07:54:56;;;;;;;2.63;0.90;;;;;;;;;;4968574;28;20814;-83
2021/07/01 07:57:28;;;;;;;6.85;1.42;;;;;;;;;;4968246;28;20406;-83
2021/07/01 07:59:57;;;;;;;3.22;1.10;;;;;;;;;;4969714;28;20413;-83
2021/07/01 08:02:41;;;;;;;4.00;1.05;;;;;;;;;;4977722;28;20416;-85
2021/07/01 08:05:09;;;;;;;3.77;1.03;;;;;;;;;;4976621;28;20493;-83
2021/07/01 08:07:38;;;;;;;4.50;1.02;;;;;;;;;;4978612;28;20407;-84
2021/07/01 08:10:09;;;;;;;6.63;0.90;;;;;;;;;;4978622;28;20983;-83
2021/07/01 08:12:42;;;;;;;4.22;0.82;;;;;;;;;;4978584;28;20427;-84
2021/07/01 08:15:13;;;;;;;4.22;1.00;;;;;;;;;;4978857;28;20847;-83
2021/07/01 08:17:43;;;;;;;3.33;1.00;;;;;;;;;;4971029;28;20417;-83
2021/07/01 08:20:12;;;;;;;2.92;1.00;;;;;;;;;;4979563;28;20413;-83
2021/07/01 08:22:41;;;;;;;3.78;1.33;;;;;;;;;;4977363;28;20467;-84
2021/07/01 08:25:08;;;;;;;2.13;0.77;;;;;;;;;;4982407;28;20430;-84
2021/07/01 08:27:35;;;;;;;2.65;0.90;;;;;;;;;;4982474;28;20403;-82
2021/07/01 08:30:05;;;;;;;2.65;0.80;;;;;;;;;;4981580;28;20762;-84
2021/07/01 08:32:34;;;;;;;2.27;0.90;;;;;;;;;;4983005;28;20487;-83
2021/07/01 08:35:01;;;;;;;4.72;1.10;;;;;;;;;;4975894;28;20406;-83
2021/07/01 08:37:29;;;;;;;3.20;1.05;;;;;;;;;;4971753;28;20410;-83
2021/07/01 08:39:59;;;;;;;4.22;1.17;;;;;;;;;;4972365;28;20418;-83
2021/07/01 08:42:32;;;;;;;3.08;0.80;;;;;;;;;;4980282;28;20412;-85
2021/07/01 08:45:03;;;;;;;1.83;0.98;;;;;;;;;;4980904;28;20833;-85
2021/07/01 08:47:31;;;;;;;2.27;0.83;;;;;;;;;;4981582;28;20433;-84
2021/07/01 08:50:01;;;;;;;5.30;1.30;;;;;;;;;;4981255;28;20499;-84
2021/07/01 08:52:30;;;;;;;3.73;1.10;;;;;;;;;;4981652;28;20417;-83
2021/07/01 08:54:59;;;;;;;2.75;1.10;;;;;;;;;;4983269;28;20412;-83
2021/07/01 08:57:29;;;;;;;3.00;1.20;;;;;;;;;;4978427;28;20449;-83
2021/07/01 09:00:02;;;;;;;2.53;0.98;;;;;;;;;;4983025;28;20412;-83
2021/07/01 09:02:38;;;;;;;3.00;1.00;;;;;;;;;;4983086;28;20408;-84
2021/07/01 09:05:11;;;;;;;2.38;1.00;;;;;;;;;;4982704;28;20416;-84
2021/07/01 09:07:40;;;;;;;5.10;1.10;;;;;;;;;;4982765;28;20758;-84
2021/07/01 09:10:11;;;;;;;4.28;1.25;;;;;;;;;;4982336;28;20765;-83
2021/07/01 09:12:43;;;;;;;4.77;1.17;;;;;;;;;;4983006;28;20421;-82
2021/07/01 09:15:12;;;;;;;3.67;1.13;;;;;;;;;;4982254;28;20419;-82
2021/07/01 09:17:47;;;;;;;2.95;0.93;;;;;;;;;;4983889;28;20824;-80
2021/07/01 09:20:19;;;;;;;3.83;1.15;;;;;;;;;;4983465;28;20416;-82
2021/07/01 09:22:48;;;;;;;3.85;1.10;;;;;;;;;;4983329;28;20466;-83
2021/07/01 09:25:17;;;;;;;2.38;1.10;;;;;;;;;;4983501;28;20765;-82
2021/07/01 09:27:46;;;;;;;5.20;1.48;;;;;;;;;;4983327;28;20440;-83
2021/07/01 09:30:16;;;;;;;3.20;1.10;;;;;;;;;;4983229;28;20464;-82
2021/07/01 09:32:45;;;;;;;1.98;0.90;;;;;;;;;;4982517;28;20440;-83
2021/07/01 09:35:14;;;;;;;2.47;0.85;;;;;;;;;;4982646;28;20408;-83
2021/07/01 09:37:44;;;;;;;3.45;0.93;;;;;;;;;;4982293;28;20432;-82
2021/07/01 09:40:14;;;;;;;4.47;0.90;;;;;;;;;;4982677;28;20505;-82
2021/07/01 09:42:42;;;;;;;2.08;0.90;;;;;;;;;;4981210;28;20419;-83
2021/07/01 09:45:11;;;;;;;2.40;0.80;;;;;;;;;;4982948;28;20569;-82
2021/07/01 09:47:40;;;;;;;3.60;0.93;;;;;;;;;;4983451;28;20436;-82
2021/07/01 09:50:08;;;;;;;3.95;1.08;;;;;;;;;;4983092;28;20409;-83
2021/07/01 09:52:40;;;;;;;2.47;0.90;;;;;;;;;;4983111;28;20428;-82
2021/07/01 09:55:10;;;;;;;2.63;0.90;;;;;;;;;;4983798;28;20417;-83
2021/07/01 09:57:38;;;;;;;5.03;0.82;;;;;;;;;;4982468;28;20416;-83
2021/07/01 10:00:08;;;;;;;3.67;0.90;;;;;;;;;;4983018;28;20471;-83
2021/07/01 10:02:36;;;;;;;1.85;0.65;;;;;;;;;;4983170;28;20459;-83
2021/07/01 10:05:05;;;;;;;1.40;0.68;;;;;;;;;;4983102;28;20881;-82
2021/07/01 10:07:32;;;;;;;1.30;0.70;;;;;;;;;;4982178;28;20401;-82
2021/07/01 10:10:13;;;;;;;1.55;0.60;;;;;;;;;;4983173;28;20459;-83
2021/07/01 10:12:50;;;;;;;1.65;0.60;;;;;;;;;;4983046;28;20428;-83
2021/07/01 10:15:26;;;;;;;1.63;0.77;;;;;;;;;;4983642;28;20420;-83
2021/07/01 10:18:09;;;;;;;2.83;0.60;;;;;;;;;;4982383;28;20491;-84
2021/07/01 10:20:37;;;;;;;2.10;0.70;;;;;;;;;;4981795;28;20455;-83
2021/07/01 10:23:17;;;;;;;1.60;0.70;;;;;;;;;;4982479;28;20412;-83
2021/07/01 10:25:46;;;;;;;2.10;0.70;;;;;;;;;;4982566;28;20869;-83
2021/07/01 10:28:15;;;;;;;4.60;0.77;;;;;;;;;;4983209;28;20523;-82
2021/07/01 10:30:43;;;;;;;2.58;0.70;;;;;;;;;;4983226;28;20557;-83
2021/07/01 10:33:23;;;;;;;2.58;0.57;;;;;;;;;;4983061;28;20437;-83
2021/07/01 10:35:50;;;;;;;3.63;0.75;;;;;;;;;;4982232;28;20416;-83
2021/07/01 10:38:17;;;;;;;1.75;0.70;;;;;;;;;;4982940;28;20416;-83
2021/07/01 10:40:47;;;;;;;2.72;0.70;;;;;;;;;;4983075;28;20416;-83
2021/07/01 10:43:16;;;;;;;2.65;0.98;;;;;;;;;;4980042;28;20849;-83
2021/07/01 10:45:55;;;;;;;1.10;0.70;;;;;;;;;;4982223;28;20495;-82
2021/07/01 10:48:22;;;;;;;3.70;0.90;;;;;;;;;;4980587;28;20475;-83
2021/07/01 10:50:51;;;;;;;2.33;0.80;;;;;;;;;;4983067;28;20463;-83
2021/07/01 10:53:37;;;;;;;4.40;1.00;;;;;;;;;;4983184;28;20817;-83
2021/07/01 10:56:25;;;;;;;3.38;0.93;;;;;;;;;;4981972;28;20409;-83
2021/07/01 10:58:55;;;;;;;3.23;1.00;;;;;;;;;;4982475;28;20417;-83
2021/07/01 11:01:23;;;;;;;4.30;1.10;;;;;;;;;;4983486;28;20408;-83
2021/07/01 11:04:04;;;;;;;2.47;0.80;;;;;;;;;;4981550;28;20404;-83
2021/07/01 11:06:31;;;;;;;4.63;0.85;;;;;;;;;;4981974;28;20750;-83
2021/07/01 11:08:59;;;;;;;4.05;1.20;;;;;;;;;;4980272;28;20460;-83
2021/07/01 11:11:31;;;;;;;3.88;1.08;;;;;;;;;;4973704;28;20445;-83
2021/07/01 11:14:00;;;;;;;3.88;0.80;;;;;;;;;;4975275;28;20462;-83
2021/07/01 11:16:33;;;;;;;3.40;1.10;;;;;;;;;;4973403;28;20423;-83
2021/07/01 11:18:59;;;;;;;4.32;1.10;;;;;;;;;;4976740;28;20423;-83
2021/07/01 11:21:26;;;;;;;2.33;0.80;;;;;;;;;;4978830;28;20468;-83
2021/07/01 11:24:10;;;;;;;2.42;0.93;;;;;;;;;;4974641;28;20473;-84
2021/07/01 11:26:38;;;;;;;2.70;0.90;;;;;;;;;;4969645;28;20414;-83
2021/07/01 11:29:08;;;;;;;4.90;1.10;;;;;;;;;;4969533;28;20422;-84
2021/07/01 11:31:37;;;;;;;3.23;0.90;;;;;;;;;;4971676;28;20401;-83
2021/07/01 11:34:05;;;;;;;2.28;0.93;;;;;;;;;;4975336;28;21593;-83
2021/07/01 11:36:32;;;;;;;2.15;0.82;;;;;;;;;;4980163;28;20488;-83
2021/07/01 11:39:11;;;;;;;2.45;0.98;;;;;;;;;;4980288;28;20417;-85
2021/07/01 11:41:41;;;;;;;3.47;0.95;;;;;;;;;;4979546;28;20413;-84
2021/07/01 11:44:11;;;;;;;3.92;1.00;;;;;;;;;;4979916;28;20488;-85
2021/07/01 11:46:38;;;;;;;2.25;0.98;;;;;;;;;;4979591;28;20413;-84
2021/07/01 11:49:06;;;;;;;2.97;0.90;;;;;;;;;;4980806;28;20463;-84
2021/07/01 11:51:35;;;;;;;3.42;0.95;;;;;;;;;;4979056;28;20425;-85
2021/07/01 11:54:02;;;;;;;3.08;0.98;;;;;;;;;;4980154;28;20523;-85
2021/07/01 11:56:29;;;;;;;2.75;1.20;;;;;;;;;;4979621;28;20447;-85
2021/07/01 11:58:57;;;;;;;3.55;1.00;;;;;;;;;;4979856;28;20581;-87
2021/07/01 12:01:27;;;;;;;2.58;0.90;;;;;;;;;;4983269;28;20849;-87
2021/07/01 12:03:54;;;;;;;3.10;0.80;;;;;;;;;;4982024;28;20479;-87
2021/07/01 12:06:34;;;;;;;2.67;0.95;;;;;;;;;;4984685;28;20495;-86
2021/07/01 12:09:01;;;;;;;2.90;1.00;;;;;;;;;;4983230;28;20417;-87
2021/07/01 12:11:28;;;;;;;1.95;1.02;;;;;;;;;;4976857;28;20871;-87
2021/07/01 12:13:57;;;;;;;3.05;1.10;;;;;;;;;;4971327;28;20426;-87
2021/07/01 12:16:41;;;;;;;2.95;1.10;;;;;;;;;;4972798;28;21386;-87
2021/07/01 12:19:08;;;;;;;4.55;1.13;;;;;;;;;;4977889;28;20410;-87
2021/07/01 12:21:35;;;;;;;2.58;1.13;;;;;;;;;;4977296;28;20489;-87
2021/07/01 12:24:04;;;;;;;2.72;1.00;;;;;;;;;;4979135;28;20957;-87
2021/07/01 12:26:41;;;;;;;3.00;0.93;;;;;;;;;;4976911;28;20503;-87
2021/07/01 12:29:13;;;;;;;2.50;0.90;;;;;;;;;;4975665;28;20469;-87
2021/07/01 12:31:41;;;;;;;2.72;1.08;;;;;;;;;;4973364;28;20416;-87
2021/07/01 12:34:10;;;;;;;2.53;1.02;;;;;;;;;;4978514;28;20432;-86
2021/07/01 12:36:40;;;;;;;2.30;0.95;;;;;;;;;;4984458;28;20883;-86
2021/07/01 12:39:14;;;;;;;2.08;0.93;;;;;;;;;;4985716;28;20901;-87
2021/07/01 12:41:43;;;;;;;3.55;0.95;;;;;;;;;;4985858;28;20413;-87
2021/07/01 12:44:14;;;;;;;3.78;1.00;;;;;;;;;;4982287;28;20539;-86
2021/07/01 12:46:57;;;;;;;2.58;1.10;;;;;;;;;;4974085;28;20770;-87
2021/07/01 12:49:58;;;;;;;2.58;1.10;;;;;;;;;;4979947;28;20520;-86
2021/07/01 12:52:45;;;;;;;1.88;0.90;;;;;;;;;;4984073;28;20886;-86
2021/07/01 12:55:29;;;;;;;2.45;0.98;;;;;;;;;;4984210;28;20443;-86
2021/07/01 12:57:56;;;;;;;2.15;1.00;;;;;;;;;;4985902;28;20412;-85
2021/07/01 13:00:24;;;;;;;2.15;0.80;;;;;;;;;;4982165;28;20454;-86
2021/07/01 13:03:04;;;;;;;2.95;1.00;;;;;;;;;;4985176;28;20416;-86
2021/07/01 13:05:36;;;;;;;4.05;1.30;;;;;;;;;;4984524;28;20856;-86
2021/07/01 13:08:03;;;;;;;2.78;1.10;;;;;;;;;;4984389;28;20507;-85
2021/07/01 13:10:30;;;;;;;2.75;1.25;;;;;;;;;;4985577;28;20720;-86
2021/07/01 13:12:57;;;;;;;2.15;1.00;;;;;;;;;;4984598;28;20412;-86
2021/07/01 13:15:25;;;;;;;1.60;1.20;;;;;;;;;;4985690;28;20487;-86
2021/07/01 13:17:53;;;;;;;2.75;1.15;;;;;;;;;;4984314;28;20412;-86
2021/07/01 13:20:21;;;;;;;1.52;1.10;;;;;;;;;;4984451;28;20957;-86
2021/07/01 13:22:49;;;;;;;3.60;1.00;;;;;;;;;;4985283;28;20425;-86
2021/07/01 13:25:18;;;;;;;3.03;1.10;;;;;;;;;;4985182;28;20883;-86
2021/07/01 13:27:46;;;;;;;3.72;1.00;;;;;;;;;;4984864;28;21009;-86
2021/07/01 13:30:22;;;;;;;2.20;1.00;;;;;;;;;;4984502;28;20424;-86
2021/07/01 13:32:52;;;;;;;2.30;1.00;;;;;;;;;;4984377;28;20500;-86
2021/07/01 13:35:21;;;;;;;4.25;1.20;;;;;;;;;;4984987;28;20519;-86
2021/07/01 13:37:51;;;;;;;4.57;1.10;;;;;;;;;;4984879;28;20417;-86
2021/07/01 13:40:21;;;;;;;3.33;1.23;;;;;;;;;;4984498;28;20408;-86
2021/07/01 13:42:52;;;;;;;2.65;1.08;;;;;;;;;;4984625;28;20424;-86
2021/07/01 13:45:20;;;;;;;2.40;1.00;;;;;;;;;;4984282;28;20401;-86
2021/07/01 13:47:51;;;;;;;2.50;1.02;;;;;;;;;;4984638;28;20774;-86
2021/07/01 13:50:29;;;;;;;2.40;1.00;;;;;;;;;;4984505;28;20916;-86
2021/07/01 13:52:58;;;;;;;2.97;1.10;;;;;;;;;;4984968;28;20761;-83
2021/07/01 13:55:28;;;;;;;3.63;1.02;;;;;;;;;;4982399;28;20430;-86
2021/07/01 13:57:56;;;;;;;3.70;1.00;;;;;;;;;;4983735;28;20420;-86
2021/07/01 14:00:26;;;;;;;5.30;1.30;;;;;;;;;;4984378;28;20812;-86
2021/07/01 14:03:00;;;;;;;6.65;1.48;;;;;;;;;;4983915;28;21141;-84
2021/07/01 14:05:29;;;;;;;5.05;1.08;;;;;;;;;;4979100;28;20916;-86
2021/07/01 14:07:56;;;;;;;2.78;1.20;;;;;;;;;;4981618;28;20487;-86
2021/07/01 14:10:27;;;;;;;4.40;1.35;;;;;;;;;;4981065;28;20467;-86
2021/07/01 14:12:54;;;;;;;5.45;1.20;;;;;;;;;;4972657;28;20479;-85
2021/07/01 14:15:23;;;;;;;4.18;1.35;;;;;;;;;;4976917;28;20943;-85
2021/07/01 14:17:50;;;;;;;4.47;1.35;;;;;;;;;;4983320;28;20407;-86
2021/07/01 14:20:19;;;;;;;5.70;1.10;;;;;;;;;;4985070;28;20409;-85
2021/07/01 14:22:46;;;;;;;3.60;1.20;;;;;;;;;;4979095;28;20424;-86
2021/07/01 14:25:22;;;;;;;5.82;1.30;;;;;;;;;;4977579;28;20453;-86
2021/07/01 14:28:01;;;;;;;6.10;1.40;;;;;;;;;;4976095;28;20425;-85
2021/07/01 14:30:39;;;;;;;3.90;1.13;;;;;;;;;;4976034;28;20483;-88
2021/07/01 14:33:37;;;;;;;5.10;1.30;;;;;;;;;;4974220;28;20418;-87
2021/07/01 14:36:16;;;;;;;4.55;1.30;;;;;;;;;;4978948;28;20555;-87
2021/07/01 14:38:45;;;;;;;4.78;1.40;;;;;;;;;;4980323;28;20419;-86
2021/07/01 14:41:14;;;;;;;3.65;1.20;;;;;;;;;;4978170;28;20404;-87
2021/07/01 14:43:42;;;;;;;3.20;1.13;;;;;;;;;;4974831;28;20430;-88
2021/07/01 14:46:14;;;;;;;3.50;1.50;;;;;;;;;;4973655;28;22155;-88
2021/07/01 14:48:40;;;;;;;4.88;1.77;;;;;;;;;;4974985;28;20769;-89
2021/07/01 14:51:23;;;;;;;5.68;2.03;;;;;;;;;;4976512;28;20409;-90
2021/07/01 14:53:54;;;;;;;3.35;1.70;;;;;;;;;;4975408;28;20900;-88
2021/07/01 14:56:44;;;;;;;3.75;1.70;;;;;;;;;;4975382;28;20484;-89